createdAt,value
2022-09-25T00:01:00.791Z,13.39
2022-09-25T00:02:02.445Z,13.34
2022-09-25T00:03:04.384Z,13.28
2022-09-25T00:04:06.022Z,13.11
2022-09-25T00:05:08.136Z,13.36
2022-09-25T00:06:13.643Z,13.18
2022-09-25T00:07:15.492Z,13.41
2022-09-25T00:08:18.805Z,13.42
2022-09-25T00:09:23.331Z,13.11
2022-09-25T00:10:25.678Z,13.45
2022-09-25T00:11:32.867Z,13.46
2022-09-25T00:12:35.994Z,13.38
2022-09-25T00:13:38.385Z,13.24
2022-09-25T00:14:40.015Z,13.20
2022-09-25T00:15:50.228Z,13.31
2022-09-25T00:16:52.005Z,13.33
2022-09-25T00:17:53.770Z,13.26
2022-09-25T00:19:15.396Z,13.36
2022-09-25T00:20:20.038Z,13.27
2022-09-25T00:21:21.751Z,13.03
2022-09-25T00:22:28.105Z,13.01
2022-09-25T00:23:29.861Z,13.20
2022-09-25T00:24:34.383Z,13.05
2022-09-25T00:25:36.729Z,13.23
2022-09-25T00:26:42.993Z,13.02
2022-09-25T00:27:45.664Z,13.29
2022-09-25T00:28:47.792Z,12.69
2022-09-25T00:29:50.420Z,13.08
2022-09-25T00:30:52.267Z,13.27
2022-09-25T00:31:55.464Z,13.19
2022-09-25T00:32:57.169Z,13.07
2022-09-25T00:34:01.066Z,13.28
2022-09-25T00:35:03.016Z,13.29
2022-09-25T00:36:09.583Z,13.17
2022-09-25T00:37:11.208Z,12.90
2022-09-25T00:38:12.760Z,13.11
2022-09-25T00:39:14.393Z,13.11
2022-09-25T00:40:16.144Z,13.17
2022-09-25T00:41:20.408Z,13.22
2022-09-25T00:42:23.031Z,13.02
2022-09-25T00:43:39.505Z,13.21
2022-09-25T00:45:02.824Z,13.18
2022-09-25T00:46:11.665Z,12.87
2022-09-25T00:47:20.628Z,12.78
2022-09-25T00:48:22.539Z,13.07
2022-09-25T00:49:26.993Z,13.17
2022-09-25T00:50:31.440Z,12.82
2022-09-25T00:51:55.163Z,13.05
2022-09-25T00:53:05.501Z,13.09
2022-09-25T00:54:16.498Z,12.79
2022-09-25T00:55:19.058Z,13.05
2022-09-25T00:56:24.076Z,12.69
2022-09-25T00:57:31.350Z,13.11
2022-09-25T00:58:35.514Z,13.05
2022-09-25T00:59:41.421Z,13.09
2022-09-25T01:00:43.904Z,13.00
2022-09-25T01:01:46.729Z,12.87
2022-09-25T01:02:55.992Z,12.48
2022-09-25T01:03:57.832Z,12.36
2022-09-25T01:05:04.118Z,12.78
2022-09-25T01:06:10.473Z,13.05
2022-09-25T01:07:15.857Z,12.87
2022-09-25T01:08:22.801Z,12.69
2022-09-25T01:09:33.642Z,12.23
2022-09-25T01:10:45.544Z,13.02
2022-09-25T01:11:47.796Z,12.82
2022-09-25T01:12:51.228Z,12.90
2022-09-25T01:13:56.852Z,12.86
2022-09-25T01:14:58.566Z,13.01
2022-09-25T01:16:25.165Z,13.00
2022-09-25T01:17:47.402Z,12.97
2022-09-25T01:19:02.555Z,12.76
2022-09-25T01:20:23.334Z,12.95
2022-09-25T01:21:44.611Z,12.82
2022-09-25T01:22:55.676Z,12.95
2022-09-25T01:24:24.423Z,12.97
2022-09-25T01:25:47.850Z,12.74
2022-09-25T01:27:14.457Z,12.95
2022-09-25T01:28:43.553Z,12.84
2022-09-25T01:30:08.790Z,12.97
2022-09-25T01:31:24.887Z,12.90
2022-09-25T01:32:35.136Z,12.98
2022-09-25T01:33:48.982Z,12.99
2022-09-25T01:35:03.033Z,12.84
2022-09-25T01:36:14.915Z,13.00
2022-09-25T01:37:30.003Z,13.04
2022-09-25T01:38:40.722Z,12.53
2022-09-25T01:39:47.244Z,12.87
2022-09-25T01:40:48.901Z,13.06
2022-09-25T01:42:16.425Z,13.07
2022-09-25T01:43:23.567Z,12.80
2022-09-25T01:44:36.470Z,12.91
2022-09-25T01:45:55.142Z,12.97
2022-09-25T01:47:04.962Z,13.04
2022-09-25T01:48:11.555Z,12.86
2022-09-25T01:49:27.052Z,12.74
2022-09-25T01:50:36.447Z,13.03
2022-09-25T01:51:49.994Z,12.89
2022-09-25T01:52:54.891Z,12.85
2022-09-25T01:54:00.654Z,13.02
2022-09-25T01:55:18.859Z,12.85
2022-09-25T01:56:31.605Z,12.82
2022-09-25T01:57:49.293Z,13.01
2022-09-25T01:58:57.807Z,13.00
2022-09-25T02:00:21.842Z,13.00
2022-09-25T02:01:29.584Z,12.74
2022-09-25T02:02:36.278Z,13.00
2022-09-25T02:03:44.313Z,13.01
2022-09-25T02:04:53.324Z,12.88
2022-09-25T02:05:59.843Z,12.78
2022-09-25T02:07:08.046Z,12.63
2022-09-25T02:08:24.635Z,12.95
2022-09-25T02:09:34.602Z,12.90
2022-09-25T02:10:49.209Z,12.92
2022-09-25T02:11:56.316Z,12.82
2022-09-25T02:13:05.582Z,12.87
2022-09-25T02:14:21.793Z,12.78
2022-09-25T02:15:29.869Z,12.48
2022-09-25T02:16:37.604Z,12.71
2022-09-25T02:18:06.973Z,12.37
2022-09-25T02:19:30.356Z,12.69
2022-09-25T02:20:36.332Z,12.89
2022-09-25T02:22:12.954Z,12.91
2022-09-25T02:23:26.953Z,12.87
2022-09-25T02:24:53.073Z,12.92
2022-09-25T02:26:06.672Z,12.60
2022-09-25T02:27:17.197Z,12.22
2022-09-25T02:28:19.338Z,12.72
2022-09-25T02:29:21.094Z,12.42
2022-09-25T02:30:22.805Z,12.17
2022-09-25T02:31:35.784Z,12.71
2022-09-25T02:32:37.673Z,12.87
2022-09-25T02:33:39.451Z,12.15
2022-09-25T02:34:42.052Z,12.85
2022-09-25T02:35:43.710Z,12.87
2022-09-25T02:36:48.234Z,12.44
2022-09-25T02:37:49.967Z,12.77
2022-09-25T02:38:53.217Z,12.71
2022-09-25T02:39:58.244Z,12.51
2022-09-25T02:41:28.611Z,12.94
2022-09-25T02:43:04.172Z,12.94
2022-09-25T02:44:31.032Z,12.95
2022-09-25T02:45:40.933Z,12.96
2022-09-25T02:47:03.365Z,12.96
2022-09-25T02:48:18.217Z,13.00
2022-09-25T02:49:47.707Z,12.77
2022-09-25T02:50:52.449Z,12.98
2022-09-25T02:52:22.038Z,12.07
2022-09-25T02:54:04.056Z,12.94
2022-09-25T02:55:25.487Z,12.93
2022-09-25T02:56:45.988Z,12.78
2022-09-25T02:58:01.351Z,12.86
2022-09-25T02:59:09.088Z,12.68
2022-09-25T03:00:11.903Z,12.74
2022-09-25T03:01:17.504Z,12.85
2022-09-25T03:02:21.406Z,12.92
2022-09-25T03:03:26.383Z,12.42
2022-09-25T03:04:29.747Z,12.43
2022-09-25T03:05:31.905Z,12.27
2022-09-25T03:06:33.691Z,12.78
2022-09-25T03:07:55.646Z,12.35
2022-09-25T03:08:59.300Z,12.62
2022-09-25T03:10:03.558Z,12.96
2022-09-25T03:11:17.613Z,12.77
2022-09-25T03:12:19.223Z,12.95
2022-09-25T03:13:32.116Z,12.91
2022-09-25T03:14:33.640Z,13.03
2022-09-25T03:15:37.446Z,12.77
2022-09-25T03:17:06.517Z,13.01
2022-09-25T03:18:09.107Z,12.96
2022-09-25T03:19:10.813Z,12.75
2022-09-25T03:20:12.986Z,13.00
2022-09-25T03:21:15.229Z,13.05
2022-09-25T03:22:16.811Z,12.50
2022-09-25T03:23:18.753Z,12.43
2022-09-25T03:24:20.788Z,13.04
2022-09-25T03:25:22.718Z,12.94
2022-09-25T03:26:25.529Z,12.92
2022-09-25T03:27:28.806Z,12.58
2022-09-25T03:28:30.728Z,12.93
2022-09-25T03:29:41.762Z,12.98
2022-09-25T03:30:43.919Z,12.77
2022-09-25T03:31:45.650Z,12.94
2022-09-25T03:32:53.197Z,12.94
2022-09-25T03:33:54.753Z,12.43
2022-09-25T03:34:57.448Z,12.57
2022-09-25T03:36:10.069Z,12.87
2022-09-25T03:37:11.795Z,12.35
2022-09-25T03:38:13.436Z,12.97
2022-09-25T03:39:18.077Z,12.99
2022-09-25T03:40:20.508Z,12.84
2022-09-25T03:41:22.828Z,12.59
2022-09-25T03:42:28.095Z,12.74
2022-09-25T03:43:33.667Z,12.83
2022-09-25T03:44:35.195Z,12.83
2022-09-25T03:45:37.018Z,13.00
2022-09-25T03:46:39.022Z,12.90
2022-09-25T03:47:40.668Z,12.55
2022-09-25T03:48:44.617Z,12.75
2022-09-25T03:49:46.300Z,12.46
2022-09-25T03:50:50.501Z,12.76
2022-09-25T03:51:58.783Z,12.84
2022-09-25T03:53:03.520Z,12.34
2022-09-25T03:54:05.260Z,12.92
2022-09-25T03:55:07.531Z,12.96
2022-09-25T03:56:13.051Z,12.37
2022-09-25T03:57:17.377Z,12.83
2022-09-25T03:58:19.610Z,12.55
2022-09-25T03:59:21.161Z,12.91
2022-09-25T04:00:24.089Z,12.75
2022-09-25T04:01:28.905Z,13.01
2022-09-25T04:02:30.804Z,12.36
2022-09-25T04:03:34.119Z,12.96
2022-09-25T04:04:37.572Z,12.96
2022-09-25T04:05:39.602Z,12.84
2022-09-25T04:06:41.171Z,12.80
2022-09-25T04:07:42.734Z,12.91
2022-09-25T04:08:45.829Z,12.55
2022-09-25T04:09:47.420Z,12.69
2022-09-25T04:10:49.258Z,12.76
2022-09-25T04:11:51.124Z,12.40
2022-09-25T04:12:54.464Z,13.03
2022-09-25T04:13:57.061Z,12.94
2022-09-25T04:15:02.461Z,13.03
2022-09-25T04:16:11.763Z,13.06
2022-09-25T04:17:13.424Z,12.84
2022-09-25T04:18:15.502Z,12.91
2022-09-25T04:19:17.430Z,12.87
2022-09-25T04:20:19.736Z,12.95
2022-09-25T04:21:21.318Z,12.92
2022-09-25T04:22:22.978Z,12.67
2022-09-25T04:23:27.083Z,12.40
2022-09-25T04:24:47.451Z,13.00
2022-09-25T04:25:49.720Z,13.04
2022-09-25T04:26:56.023Z,13.07
2022-09-25T04:27:58.426Z,13.03
2022-09-25T04:29:01.510Z,12.94
2022-09-25T04:30:05.298Z,12.74
2022-09-25T04:31:08.031Z,12.92
2022-09-25T04:32:28.055Z,12.80
2022-09-25T04:33:48.305Z,12.94
2022-09-25T04:34:50.345Z,12.98
2022-09-25T04:35:51.963Z,12.48
2022-09-25T04:36:53.708Z,12.99
2022-09-25T04:37:58.814Z,12.98
2022-09-25T04:39:00.559Z,13.03
2022-09-25T04:40:02.385Z,13.00
2022-09-25T04:41:04.290Z,13.05
2022-09-25T04:42:06.621Z,12.80
2022-09-25T04:43:08.287Z,12.91
2022-09-25T04:44:09.778Z,12.04
2022-09-25T04:45:11.683Z,13.08
2022-09-25T04:46:20.048Z,13.06
2022-09-25T04:47:24.938Z,12.85
2022-09-25T04:48:26.716Z,12.55
2022-09-25T04:49:31.385Z,12.89
2022-09-25T04:50:36.704Z,12.99
2022-09-25T04:51:41.314Z,12.30
2022-09-25T04:52:42.857Z,13.01
2022-09-25T04:53:51.910Z,12.47
2022-09-25T04:54:53.643Z,12.41
2022-09-25T04:56:01.287Z,12.99
2022-09-25T04:57:04.236Z,12.92
2022-09-25T04:58:06.123Z,12.75
2022-09-25T04:59:07.786Z,12.94
2022-09-25T05:00:10.798Z,13.02
2022-09-25T05:01:13.066Z,13.03
2022-09-25T05:02:15.059Z,12.47
2022-09-25T05:03:19.823Z,12.80
2022-09-25T05:04:21.532Z,12.99
2022-09-25T05:05:28.298Z,13.06
2022-09-25T05:06:32.734Z,12.88
2022-09-25T05:07:35.590Z,12.79
2022-09-25T05:08:44.359Z,12.41
2022-09-25T05:09:45.949Z,12.48
2022-09-25T05:10:50.266Z,12.86
2022-09-25T05:11:55.647Z,12.85
2022-09-25T05:13:02.458Z,12.68
2022-09-25T05:14:04.353Z,12.60
2022-09-25T05:15:06.750Z,12.60
2022-09-25T05:16:10.163Z,12.55
2022-09-25T05:17:12.482Z,12.98
2022-09-25T05:18:20.802Z,12.83
2022-09-25T05:19:22.530Z,12.51
2022-09-25T05:20:24.203Z,12.51
2022-09-25T05:21:26.019Z,12.98
2022-09-25T05:22:27.682Z,12.56
2022-09-25T05:23:32.300Z,12.51
2022-09-25T05:24:34.965Z,12.61
2022-09-25T05:25:36.561Z,12.19
2022-09-25T05:26:38.376Z,12.57
2022-09-25T05:28:29.119Z,12.99
2022-09-25T05:29:31.514Z,12.41
2022-09-25T05:30:35.132Z,12.47
2022-09-25T05:31:38.288Z,12.85
2022-09-25T05:32:39.988Z,12.58
2022-09-25T05:33:41.767Z,12.75
2022-09-25T05:34:43.319Z,12.98
2022-09-25T05:35:45.223Z,12.63
2022-09-25T05:36:46.971Z,13.01
2022-09-25T05:37:48.677Z,12.81
2022-09-25T05:38:54.122Z,12.43
2022-09-25T05:39:57.098Z,12.48
2022-09-25T05:41:05.615Z,12.80
2022-09-25T05:42:07.370Z,12.89
2022-09-25T05:43:09.052Z,12.67
2022-09-25T05:44:11.458Z,12.19
2022-09-25T05:45:14.200Z,12.86
2022-09-25T05:46:16.406Z,12.61
2022-09-25T05:47:18.845Z,12.85
2022-09-25T05:48:20.531Z,12.80
2022-09-25T05:49:23.408Z,12.70
2022-09-25T05:50:25.390Z,12.61
2022-09-25T05:51:27.105Z,13.21
2022-09-25T05:52:29.701Z,12.84
2022-09-25T05:53:33.990Z,12.65
2022-09-25T05:54:35.725Z,12.75
2022-09-25T05:55:39.500Z,12.66
2022-09-25T05:56:41.182Z,13.01
2022-09-25T05:57:42.929Z,12.95
2022-09-25T05:58:45.054Z,13.02
2022-09-25T05:59:49.844Z,12.53
2022-09-25T06:00:52.055Z,13.05
2022-09-25T06:01:54.858Z,13.23
2022-09-25T06:02:57.546Z,12.96
2022-09-25T06:03:59.213Z,12.90
2022-09-25T06:05:00.867Z,12.92
2022-09-25T06:06:03.199Z,13.10
2022-09-25T06:07:05.383Z,12.87
2022-09-25T06:08:07.364Z,13.07
2022-09-25T06:09:09.049Z,12.81
2022-09-25T06:10:11.488Z,13.04
2022-09-25T06:11:13.184Z,12.82
2022-09-25T06:12:14.877Z,12.45
2022-09-25T06:13:16.552Z,12.99
2022-09-25T06:14:20.250Z,12.36
2022-09-25T06:15:29.187Z,13.08
2022-09-25T06:16:32.757Z,12.89
2022-09-25T06:17:34.624Z,13.33
2022-09-25T06:18:40.687Z,13.34
2022-09-25T06:19:42.722Z,12.81
2022-09-25T06:20:44.514Z,13.33
2022-09-25T06:21:48.915Z,13.15
2022-09-25T06:23:00.830Z,13.31
2022-09-25T06:24:02.540Z,12.89
2022-09-25T06:25:07.488Z,13.31
2022-09-25T06:26:10.271Z,12.90
2022-09-25T06:27:11.877Z,13.14
2022-09-25T06:28:13.445Z,12.90
2022-09-25T06:29:15.155Z,12.94
2022-09-25T06:30:20.243Z,13.18
2022-09-25T06:31:22.125Z,13.17
2022-09-25T06:32:23.944Z,13.05
2022-09-25T06:33:25.621Z,13.25
2022-09-25T06:34:28.363Z,13.24
2022-09-25T06:35:30.441Z,13.42
2022-09-25T06:36:32.573Z,13.44
2022-09-25T06:37:34.246Z,13.45
2022-09-25T06:38:35.988Z,12.92
2022-09-25T06:39:38.659Z,13.31
2022-09-25T06:40:46.940Z,13.53
2022-09-25T06:41:48.698Z,13.49
2022-09-25T06:42:56.027Z,13.54
2022-09-25T06:43:58.338Z,13.54
2022-09-25T06:44:59.857Z,13.24
2022-09-25T06:46:03.456Z,13.54
2022-09-25T06:47:05.496Z,13.55
2022-09-25T06:48:16.818Z,13.48
2022-09-25T06:49:21.763Z,13.56
2022-09-25T06:50:31.592Z,13.61
2022-09-25T06:51:35.209Z,13.63
2022-09-25T06:52:43.409Z,12.97
2022-09-25T06:53:48.513Z,13.50
2022-09-25T06:54:54.168Z,13.18
2022-09-25T06:56:03.072Z,13.77
2022-09-25T06:57:09.851Z,13.76
2022-09-25T06:58:14.672Z,13.81
2022-09-25T06:59:17.757Z,13.80
2022-09-25T07:00:22.217Z,13.70
2022-09-25T07:01:24.189Z,13.75
2022-09-25T07:02:47.698Z,13.50
2022-09-25T07:03:49.859Z,13.65
2022-09-25T07:04:54.554Z,13.43
2022-09-25T07:06:10.033Z,13.67
2022-09-25T07:07:11.597Z,13.85
2022-09-25T07:08:18.534Z,13.66
2022-09-25T07:09:20.313Z,13.88
2022-09-25T07:10:25.037Z,13.71
2022-09-25T07:11:28.711Z,13.58
2022-09-25T07:12:31.133Z,13.88
2022-09-25T07:13:38.528Z,13.91
2022-09-25T07:14:43.184Z,14.14
2022-09-25T07:15:54.571Z,14.09
2022-09-25T07:16:56.168Z,14.21
2022-09-25T07:18:00.492Z,14.03
2022-09-25T07:19:04.195Z,13.93
2022-09-25T07:20:08.095Z,14.17
2022-09-25T07:21:19.185Z,14.32
2022-09-25T07:22:24.200Z,13.93
2022-09-25T07:23:25.846Z,13.82
2022-09-25T07:24:27.586Z,13.77
2022-09-25T07:25:29.580Z,14.20
2022-09-25T07:26:34.062Z,14.22
2022-09-25T07:27:36.679Z,14.34
2022-09-25T07:28:39.533Z,14.28
2022-09-25T07:29:41.144Z,13.74
2022-09-25T07:30:43.650Z,14.33
2022-09-25T07:31:48.636Z,14.36
2022-09-25T07:32:50.288Z,14.23
2022-09-25T07:33:55.057Z,14.09
2022-09-25T07:34:56.800Z,13.87
2022-09-25T07:36:01.300Z,13.95
2022-09-25T07:37:03.031Z,14.26
2022-09-25T07:38:07.554Z,14.24
2022-09-25T07:39:11.761Z,13.68
2022-09-25T07:40:16.799Z,14.08
2022-09-25T07:41:22.334Z,14.24
2022-09-25T07:42:23.975Z,13.95
2022-09-25T07:43:25.558Z,13.98
2022-09-25T07:44:30.193Z,14.07
2022-09-25T07:45:35.950Z,13.99
2022-09-25T07:46:42.906Z,13.78
2022-09-25T07:47:44.670Z,14.33
2022-09-25T07:48:50.066Z,14.42
2022-09-25T07:49:54.590Z,14.17
2022-09-25T07:51:00.799Z,14.55
2022-09-25T07:52:05.909Z,14.59
2022-09-25T07:53:07.667Z,14.60
2022-09-25T07:54:09.356Z,14.36
2022-09-25T07:55:11.138Z,14.04
2022-09-25T07:56:12.906Z,14.68
2022-09-25T07:57:15.417Z,14.56
2022-09-25T07:58:22.675Z,14.74
2022-09-25T07:59:24.488Z,14.60
2022-09-25T08:00:29.380Z,14.45
2022-09-25T08:01:30.959Z,14.81
2022-09-25T08:02:36.022Z,14.59
2022-09-25T08:03:38.011Z,14.22
2022-09-25T08:04:40.259Z,14.71
2022-09-25T08:05:47.142Z,14.63
2022-09-25T08:06:49.056Z,14.73
2022-09-25T08:07:52.758Z,14.01
2022-09-25T08:08:54.419Z,14.69
2022-09-25T08:09:56.250Z,14.08
2022-09-25T08:11:03.094Z,14.76
2022-09-25T08:12:04.728Z,14.74
2022-09-25T08:13:09.702Z,14.53
2022-09-25T08:14:16.794Z,14.20
2022-09-25T08:15:21.113Z,14.76
2022-09-25T08:16:24.443Z,14.69
2022-09-25T08:17:31.312Z,14.79
2022-09-25T08:18:33.461Z,14.83
2022-09-25T08:19:35.470Z,14.24
2022-09-25T08:20:42.528Z,14.42
2022-09-25T08:21:48.229Z,14.58
2022-09-25T08:22:53.832Z,14.67
2022-09-25T08:23:56.779Z,14.79
2022-09-25T08:24:58.318Z,14.73
2022-09-25T08:26:45.301Z,14.28
2022-09-25T08:27:49.875Z,14.81
2022-09-25T08:28:59.196Z,15.07
2022-09-25T08:30:00.768Z,14.82
2022-09-25T08:31:04.228Z,15.30
2022-09-25T08:32:08.109Z,15.10
2022-09-25T08:33:15.421Z,15.01
2022-09-25T08:35:41.230Z,14.94
2022-09-25T08:36:46.020Z,15.28
2022-09-25T08:37:48.885Z,15.29
2022-09-25T08:38:58.635Z,15.30
2022-09-25T08:40:00.771Z,14.84
2022-09-25T08:41:08.819Z,15.07
2022-09-25T08:42:22.252Z,14.68
2022-09-25T08:43:29.685Z,14.99
2022-09-25T08:44:36.986Z,15.33
2022-09-25T08:46:02.742Z,15.26
2022-09-25T08:47:27.307Z,15.42
2022-09-25T08:49:00.352Z,15.25
2022-09-25T08:50:15.927Z,15.38
2022-09-25T08:51:17.588Z,14.89
2022-09-25T08:52:22.919Z,15.53
2022-09-25T08:53:25.585Z,15.60
2022-09-25T08:54:31.026Z,15.42
2022-09-25T08:55:58.813Z,15.62
2022-09-25T08:57:08.684Z,15.51
2022-09-25T08:58:24.811Z,15.07
2022-09-25T08:59:34.414Z,15.63
2022-09-25T09:00:38.812Z,15.64
2022-09-25T09:02:12.050Z,15.36
2022-09-25T09:03:15.624Z,15.15
2022-09-25T09:04:34.399Z,15.75
2022-09-25T09:05:41.213Z,15.44
2022-09-25T09:06:43.696Z,15.71
2022-09-25T09:07:50.054Z,15.74
2022-09-25T09:09:08.374Z,15.63
2022-09-25T09:10:33.696Z,16.06
2022-09-25T09:12:07.356Z,16.10
2022-09-25T09:13:35.665Z,16.26
2022-09-25T09:14:43.471Z,16.23
2022-09-25T09:16:10.748Z,16.40
2022-09-25T09:17:27.553Z,16.09
2022-09-25T09:18:31.530Z,16.49
2022-09-25T09:19:33.524Z,16.51
2022-09-25T09:20:51.751Z,16.74
2022-09-25T09:22:15.167Z,16.89
2022-09-25T09:23:20.279Z,17.06
2022-09-25T09:24:48.158Z,17.01
2022-09-25T09:26:20.206Z,17.27
2022-09-25T09:27:36.560Z,17.29
2022-09-25T09:29:08.178Z,17.35
2022-09-25T09:30:20.194Z,17.41
2022-09-25T09:31:33.870Z,17.43
2022-09-25T09:33:03.186Z,17.46
2022-09-25T09:35:00.911Z,17.54
2022-09-25T09:36:05.261Z,17.47
2022-09-25T09:37:23.809Z,17.38
2022-09-25T09:38:59.227Z,17.41
2022-09-25T09:40:24.283Z,17.46
2022-09-25T09:41:59.243Z,17.43
2022-09-25T09:43:37.256Z,17.49
2022-09-25T09:45:24.269Z,17.51
2022-09-25T09:46:34.709Z,17.75
2022-09-25T09:48:00.909Z,17.70
2022-09-25T09:49:21.474Z,18.02
2022-09-25T09:50:26.134Z,18.13
2022-09-25T09:51:49.411Z,18.20
2022-09-25T09:52:59.896Z,18.10
2022-09-25T09:54:14.083Z,18.20
2022-09-25T09:55:38.891Z,18.50
2022-09-25T09:56:45.172Z,18.40
2022-09-25T09:57:57.488Z,18.37
2022-09-25T09:59:15.907Z,18.47
2022-09-25T10:00:20.687Z,18.15
2022-09-25T10:01:40.914Z,18.30
2022-09-25T10:02:45.386Z,17.92
2022-09-25T10:04:02.932Z,17.84
2022-09-25T10:05:14.870Z,17.64
2022-09-25T10:06:22.417Z,17.78
2022-09-25T10:07:27.845Z,17.81
2022-09-25T10:08:30.198Z,17.66
2022-09-25T10:09:32.242Z,17.42
2022-09-25T10:10:39.842Z,17.59
2022-09-25T10:11:43.209Z,17.51
2022-09-25T10:12:53.219Z,17.57
2022-09-25T10:14:00.067Z,17.29
2022-09-25T10:15:05.971Z,17.06
2022-09-25T10:16:21.588Z,16.58
2022-09-25T10:17:24.264Z,17.17
2022-09-25T10:18:31.836Z,17.42
2022-09-25T10:19:45.337Z,17.39
2022-09-25T10:20:56.624Z,17.70
2022-09-25T10:22:16.359Z,17.85
2022-09-25T10:23:40.782Z,17.86
2022-09-25T10:24:58.593Z,18.18
2022-09-25T10:26:00.765Z,17.90
2022-09-25T10:27:28.171Z,18.39
2022-09-25T10:28:34.304Z,18.46
2022-09-25T10:29:36.009Z,18.56
2022-09-25T10:30:46.313Z,18.80
2022-09-25T10:31:57.190Z,19.09
2022-09-25T10:33:13.322Z,19.24
2022-09-25T10:34:17.999Z,19.59
2022-09-25T10:35:28.661Z,19.69
2022-09-25T10:36:44.791Z,19.52
2022-09-25T10:37:51.304Z,19.36
2022-09-25T10:39:08.388Z,19.22
2022-09-25T10:40:39.314Z,19.66
2022-09-25T10:41:49.856Z,19.44
2022-09-25T10:43:04.727Z,19.53
2022-09-25T10:44:21.935Z,19.43
2022-09-25T10:45:26.426Z,19.51
2022-09-25T10:46:56.190Z,19.48
2022-09-25T10:48:16.442Z,19.43
2022-09-25T10:49:45.884Z,19.45
2022-09-25T10:51:09.838Z,19.18
2022-09-25T10:52:22.955Z,19.03
2022-09-25T10:53:34.883Z,19.02
2022-09-25T10:54:44.480Z,18.57
2022-09-25T10:55:51.697Z,18.80
2022-09-25T10:56:53.743Z,18.45
2022-09-25T10:58:05.688Z,18.42
2022-09-25T10:59:22.003Z,18.20
2022-09-25T11:00:29.388Z,17.66
2022-09-25T11:01:42.889Z,17.69
2022-09-25T11:02:46.799Z,17.83
2022-09-25T11:03:58.934Z,17.92
2022-09-25T11:05:05.978Z,17.85
2022-09-25T11:06:20.965Z,17.95
2022-09-25T11:07:27.493Z,17.74
2022-09-25T11:08:35.629Z,18.47
2022-09-25T11:09:44.658Z,18.61
2022-09-25T11:11:02.170Z,18.19
2022-09-25T11:12:13.181Z,18.58
2022-09-25T11:13:25.659Z,18.54
2022-09-25T11:14:36.022Z,18.75
2022-09-25T11:15:39.190Z,18.56
2022-09-25T11:16:53.674Z,18.76
2022-09-25T11:17:57.348Z,18.59
2022-09-25T11:19:31.997Z,18.60
2022-09-25T11:20:33.829Z,18.01
2022-09-25T11:21:49.180Z,17.82
2022-09-25T11:23:09.014Z,17.95
2022-09-25T11:24:16.741Z,17.65
2022-09-25T11:25:27.045Z,17.37
2022-09-25T11:26:38.326Z,17.82
2022-09-25T11:28:07.498Z,18.02
2022-09-25T11:29:19.123Z,18.18
2022-09-25T11:30:22.702Z,18.17
2022-09-25T11:31:39.528Z,18.19
2022-09-25T11:32:53.532Z,18.59
2022-09-25T11:34:01.291Z,18.63
2022-09-25T11:35:14.991Z,18.89
2022-09-25T11:36:27.690Z,18.79
2022-09-25T11:37:50.037Z,18.78
2022-09-25T11:39:15.536Z,18.74
2022-09-25T11:40:42.192Z,18.91
2022-09-25T11:42:09.841Z,18.92
2022-09-25T11:43:16.886Z,18.64
2022-09-25T11:44:38.746Z,18.74
2022-09-25T11:45:47.569Z,18.34
2022-09-25T11:46:54.894Z,18.41
2022-09-25T11:48:10.647Z,18.40
2022-09-25T11:49:24.741Z,18.08
2022-09-25T11:50:40.137Z,18.51
2022-09-25T11:52:09.160Z,18.72
2022-09-25T11:53:25.757Z,18.80
2022-09-25T11:55:00.430Z,18.54
2022-09-25T11:56:49.620Z,18.90
2022-09-25T11:58:15.920Z,18.63
2022-09-25T11:59:32.642Z,18.77
2022-09-25T12:00:37.821Z,18.79
2022-09-25T12:01:46.541Z,18.51
2022-09-25T12:02:57.157Z,18.32
2022-09-25T12:04:12.771Z,18.48
2022-09-25T12:05:52.846Z,18.59
2022-09-25T12:07:24.431Z,18.74
2022-09-25T12:08:50.623Z,18.93
2022-09-25T12:10:12.257Z,19.21
2022-09-25T12:11:45.879Z,19.55
2022-09-25T12:13:12.653Z,19.61
2022-09-25T12:14:35.550Z,19.40
2022-09-25T12:16:14.633Z,19.56
2022-09-25T12:17:19.154Z,19.67
2022-09-25T12:18:53.055Z,20.04
2022-09-25T12:20:01.311Z,19.51
2022-09-25T12:21:12.020Z,19.93
2022-09-25T12:22:27.454Z,20.18
2022-09-25T12:23:34.526Z,20.32
2022-09-25T12:24:40.084Z,20.63
2022-09-25T12:25:49.508Z,20.53
2022-09-25T12:27:14.106Z,20.96
2022-09-25T12:28:34.499Z,21.25
2022-09-25T12:29:46.407Z,21.64
2022-09-25T12:31:09.851Z,21.49
2022-09-25T12:32:32.925Z,21.23
2022-09-25T12:33:44.608Z,21.06
2022-09-25T12:35:15.936Z,21.13
2022-09-25T12:36:24.554Z,21.84
2022-09-25T12:37:46.377Z,22.26
2022-09-25T12:38:55.541Z,22.55
2022-09-25T12:40:00.300Z,22.72
2022-09-25T12:41:07.408Z,23.12
2022-09-25T12:42:24.521Z,23.29
2022-09-25T12:43:41.166Z,22.69
2022-09-25T12:44:59.780Z,22.54
2022-09-25T12:46:10.576Z,22.99
2022-09-25T12:47:37.641Z,22.79
2022-09-25T12:49:04.440Z,22.74
2022-09-25T12:50:18.396Z,22.11
2022-09-25T12:51:34.081Z,21.40
2022-09-25T12:52:42.223Z,21.05
2022-09-25T12:53:43.891Z,20.99
2022-09-25T12:55:13.825Z,21.02
2022-09-25T12:56:27.513Z,21.20
2022-09-25T12:57:35.198Z,20.71
2022-09-25T12:59:11.044Z,20.50
2022-09-25T13:00:48.235Z,20.38
2022-09-25T13:02:12.340Z,21.39
2022-09-25T13:03:32.653Z,22.82
2022-09-25T13:04:48.888Z,23.18
2022-09-25T13:06:03.513Z,21.97
2022-09-25T13:07:23.583Z,22.03
2022-09-25T13:08:38.808Z,22.10
2022-09-25T13:09:46.482Z,21.68
2022-09-25T13:10:54.655Z,21.21
2022-09-25T13:12:05.774Z,21.41
2022-09-25T13:13:20.105Z,21.62
2022-09-25T13:14:34.647Z,21.72
2022-09-25T13:15:42.041Z,21.35
2022-09-25T13:16:47.087Z,21.18
2022-09-25T13:17:53.628Z,20.99
2022-09-25T13:19:37.254Z,20.95
2022-09-25T13:20:47.848Z,20.77
2022-09-25T13:21:50.968Z,20.47
2022-09-25T13:22:59.711Z,20.53
2022-09-25T13:24:01.824Z,20.31
2022-09-25T13:25:16.702Z,20.88
2022-09-25T13:26:24.553Z,21.38
2022-09-25T13:27:26.573Z,21.41
2022-09-25T13:28:41.975Z,21.36
2022-09-25T13:29:43.744Z,21.47
2022-09-25T13:31:13.721Z,21.61
2022-09-25T13:32:19.286Z,21.16
2022-09-25T13:33:25.870Z,21.93
2022-09-25T13:34:27.608Z,22.05
2022-09-25T13:35:33.391Z,22.27
2022-09-25T13:36:42.317Z,22.82
2022-09-25T13:37:44.358Z,23.84
2022-09-25T13:39:05.060Z,24.59
2022-09-25T13:40:36.237Z,24.85
2022-09-25T13:41:48.693Z,24.63
2022-09-25T13:42:50.401Z,24.46
2022-09-25T13:44:31.708Z,24.31
2022-09-25T13:45:35.083Z,23.93
2022-09-25T13:46:37.560Z,23.44
2022-09-25T13:48:11.289Z,23.83
2022-09-25T13:49:34.124Z,22.91
2022-09-25T13:51:07.526Z,22.36
2022-09-25T13:52:32.566Z,21.29
2022-09-25T13:54:05.270Z,20.80
2022-09-25T13:55:20.112Z,20.40
2022-09-25T13:56:40.661Z,19.80
2022-09-25T13:58:02.152Z,19.54
2022-09-25T13:59:22.572Z,19.37
2022-09-25T14:00:49.732Z,19.05
2022-09-25T14:02:00.751Z,18.28
2022-09-25T14:03:05.856Z,17.04
2022-09-25T14:04:32.857Z,17.28
2022-09-25T14:05:39.349Z,16.68
2022-09-25T14:06:46.688Z,16.92
2022-09-25T14:07:54.931Z,16.85
2022-09-25T14:09:00.183Z,16.55
2022-09-25T14:10:02.690Z,16.42
2022-09-25T14:11:09.615Z,16.60
2022-09-25T14:12:35.112Z,16.60
2022-09-25T14:13:36.802Z,16.36
2022-09-25T14:14:57.770Z,16.56
2022-09-25T14:16:05.454Z,16.42
2022-09-25T14:17:10.644Z,16.05
2022-09-25T14:18:21.352Z,16.07
2022-09-25T14:19:44.306Z,16.01
2022-09-25T14:20:56.475Z,15.43
2022-09-25T14:22:00.526Z,15.54
2022-09-25T14:23:06.874Z,15.12
2022-09-25T14:24:29.141Z,15.65
2022-09-25T14:25:33.764Z,15.62
2022-09-25T14:26:44.943Z,15.57
2022-09-25T14:27:52.265Z,15.64
2022-09-25T14:28:56.145Z,15.66
2022-09-25T14:30:07.515Z,15.71
2022-09-25T14:31:18.302Z,15.73
2022-09-25T14:32:55.054Z,15.58
2022-09-25T14:34:18.773Z,15.68
2022-09-25T14:35:32.793Z,15.82
2022-09-25T14:37:11.888Z,15.71
2022-09-25T14:38:16.155Z,15.53
2022-09-25T14:39:24.813Z,15.24
2022-09-25T14:40:35.379Z,15.13
2022-09-25T14:41:58.612Z,15.15
2022-09-25T14:43:23.593Z,15.15
2022-09-25T14:44:48.475Z,15.17
2022-09-25T14:46:01.680Z,14.71
2022-09-25T14:47:05.285Z,15.13
2022-09-25T14:48:30.619Z,15.14
2022-09-25T14:49:39.271Z,14.52
2022-09-25T14:50:48.519Z,15.09
2022-09-25T14:51:52.130Z,15.08
2022-09-25T14:53:02.917Z,14.90
2022-09-25T14:54:06.793Z,15.06
2022-09-25T14:55:16.518Z,14.96
2022-09-25T14:56:24.710Z,14.73
2022-09-25T14:57:31.024Z,14.91
2022-09-25T14:58:41.371Z,14.71
2022-09-25T14:59:46.386Z,14.77